createdAt,value
2023-03-17T00:03:53.631Z,2.20
2023-03-17T00:08:12.021Z,2.27
2023-03-17T00:12:20.117Z,2.15
2023-03-17T00:16:28.208Z,2.32
2023-03-17T00:20:36.353Z,2.22
2023-03-17T00:24:39.237Z,2.14
2023-03-17T00:28:46.177Z,1.91
2023-03-17T00:32:53.101Z,2.05
2023-03-17T00:36:57.573Z,2.13
2023-03-17T00:41:11.688Z,1.98
2023-03-17T00:45:16.431Z,2.10
2023-03-17T00:49:24.068Z,1.84
2023-03-17T00:53:28.407Z,1.77
2023-03-17T00:57:32.026Z,1.86
2023-03-17T01:01:37.817Z,2.11
2023-03-17T01:05:43.512Z,1.55
2023-03-17T01:09:50.276Z,1.61
2023-03-17T01:13:53.958Z,1.67
2023-03-17T01:17:57.397Z,1.34
2023-03-17T01:22:04.899Z,1.61
2023-03-17T01:26:11.380Z,1.40
2023-03-17T01:30:25.081Z,1.30
2023-03-17T01:34:30.589Z,1.48
2023-03-17T01:38:43.940Z,1.54
2023-03-17T01:42:54.534Z,1.08
2023-03-17T01:46:58.970Z,1.41
2023-03-17T01:51:07.822Z,1.42
2023-03-17T01:55:15.121Z,1.11
2023-03-17T01:59:21.469Z,0.93
2023-03-17T02:03:26.398Z,1.18
2023-03-17T02:07:30.117Z,1.19
2023-03-17T02:11:36.150Z,1.07
2023-03-17T02:15:41.911Z,1.05
2023-03-17T02:19:50.592Z,1.02
2023-03-17T02:23:56.283Z,0.65
2023-03-17T02:28:03.342Z,0.59
2023-03-17T02:32:07.681Z,0.67
2023-03-17T02:36:13.610Z,0.58
2023-03-17T02:40:21.187Z,0.64
2023-03-17T02:44:25.236Z,0.76
2023-03-17T02:48:28.342Z,0.53
2023-03-17T02:52:32.274Z,0.39
2023-03-17T02:56:36.806Z,0.00
2023-03-17T03:00:41.922Z,0.57
2023-03-17T03:04:45.922Z,0.36
2023-03-17T03:08:49.753Z,0.05
2023-03-17T03:12:54.002Z,0.38
2023-03-17T03:16:57.560Z,0.30
2023-03-17T03:21:01.250Z,0.22
2023-03-17T03:25:05.025Z,-0.16
2023-03-17T03:29:12.439Z,-0.01
2023-03-17T03:33:16.026Z,0.06
2023-03-17T03:37:19.636Z,-0.23
2023-03-17T03:41:23.861Z,-0.07
2023-03-17T03:45:29.239Z,0.12
2023-03-17T03:49:32.323Z,-0.19
2023-03-17T03:53:35.867Z,-0.06
2023-03-17T03:57:39.882Z,0.00
2023-03-17T04:01:44.661Z,0.14
2023-03-17T04:05:48.877Z,-0.06
2023-03-17T04:09:52.697Z,0.03
2023-03-17T04:13:56.652Z,-0.26
2023-03-17T04:18:02.168Z,-0.30
2023-03-17T04:22:05.956Z,0.04
2023-03-17T04:26:11.131Z,-0.16
2023-03-17T04:30:18.795Z,-0.51
2023-03-17T04:34:23.803Z,-0.42
2023-03-17T04:38:29.592Z,-0.22
2023-03-17T04:42:33.266Z,-0.19
2023-03-17T04:46:36.880Z,-0.46
2023-03-17T04:50:42.603Z,-0.30
2023-03-17T04:54:45.704Z,-0.07
2023-03-17T04:58:49.302Z,-0.19
2023-03-17T05:03:01.555Z,-0.31
2023-03-17T05:07:10.241Z,-0.19
2023-03-17T05:11:14.297Z,-0.40
2023-03-17T05:15:21.899Z,-0.09
2023-03-17T05:19:24.801Z,-0.03
2023-03-17T05:23:29.797Z,-0.28
2023-03-17T05:27:33.741Z,-0.01
2023-03-17T05:31:50.920Z,0.01
2023-03-17T05:35:54.420Z,-0.23
2023-03-17T05:39:59.749Z,-0.36
2023-03-17T05:44:03.505Z,0.01
2023-03-17T05:48:07.994Z,0.07
2023-03-17T05:52:11.944Z,0.10
2023-03-17T05:56:20.191Z,0.26
2023-03-17T06:00:26.782Z,0.10
2023-03-17T06:04:30.603Z,0.31
2023-03-17T06:08:37.160Z,0.53
2023-03-17T06:12:42.638Z,0.56
2023-03-17T06:16:46.474Z,0.61
2023-03-17T06:20:50.048Z,0.64
2023-03-17T06:24:55.434Z,0.81
2023-03-17T06:29:05.295Z,0.85
2023-03-17T06:33:11.524Z,0.72
2023-03-17T06:37:14.936Z,0.96
2023-03-17T06:41:19.371Z,0.94
2023-03-17T06:45:27.839Z,1.26
2023-03-17T06:49:33.490Z,1.55
2023-03-17T06:53:37.324Z,1.43
2023-03-17T06:57:43.954Z,1.71
2023-03-17T07:01:52.602Z,1.98
2023-03-17T07:05:57.158Z,2.24
2023-03-17T07:10:01.646Z,2.89
2023-03-17T07:14:09.659Z,2.81
2023-03-17T07:18:15.605Z,2.81
2023-03-17T07:22:22.540Z,3.16
2023-03-17T07:26:25.516Z,3.49
2023-03-17T07:30:32.609Z,3.56
2023-03-17T07:34:42.205Z,3.86
2023-03-17T07:38:47.081Z,4.11
2023-03-17T07:42:53.609Z,4.22
2023-03-17T07:47:03.695Z,4.34
2023-03-17T07:51:21.860Z,4.43
2023-03-17T07:55:29.566Z,4.92
2023-03-17T07:59:42.168Z,5.03
2023-03-17T08:03:48.799Z,5.26
2023-03-17T08:07:55.017Z,5.32
2023-03-17T08:12:00.067Z,5.44
2023-03-17T08:16:11.545Z,5.55
2023-03-17T08:20:15.502Z,5.72
2023-03-17T08:24:22.408Z,5.70
2023-03-17T08:28:32.405Z,6.05
2023-03-17T08:32:41.204Z,6.32
2023-03-17T08:36:46.843Z,6.36
2023-03-17T08:40:52.562Z,6.65
2023-03-17T08:44:57.466Z,6.75
2023-03-17T08:49:03.880Z,6.83
2023-03-17T08:53:10.073Z,6.99
2023-03-17T08:57:18.014Z,7.16
2023-03-17T09:01:23.376Z,7.44
2023-03-17T09:05:29.533Z,7.60
2023-03-17T09:09:42.270Z,7.77
2023-03-17T09:13:51.934Z,7.92
2023-03-17T09:17:57.497Z,8.37
2023-03-17T09:22:03.461Z,8.86
2023-03-17T09:26:11.468Z,9.20
2023-03-17T09:30:20.963Z,9.34
2023-03-17T09:34:29.411Z,9.52
2023-03-17T09:38:33.759Z,9.73
2023-03-17T09:42:47.226Z,10.13
2023-03-17T09:47:04.973Z,10.55
2023-03-17T09:51:13.439Z,10.76
2023-03-17T09:55:25.252Z,10.50
2023-03-17T09:59:32.618Z,10.58
2023-03-17T10:03:39.435Z,11.06
2023-03-17T10:07:47.198Z,11.36
2023-03-17T10:11:55.161Z,11.59
2023-03-17T10:16:04.096Z,11.89
2023-03-17T10:20:13.968Z,12.13
2023-03-17T10:24:17.156Z,12.05
2023-03-17T10:28:28.488Z,12.36
2023-03-17T10:32:40.242Z,12.54
2023-03-17T10:36:47.237Z,12.57
2023-03-17T10:40:58.325Z,12.57
2023-03-17T10:45:03.392Z,12.80
2023-03-17T10:49:10.875Z,12.84
2023-03-17T10:53:28.575Z,12.88
2023-03-17T10:57:31.675Z,13.03
2023-03-17T11:01:41.377Z,13.21
2023-03-17T11:05:57.139Z,13.49
2023-03-17T11:10:03.605Z,13.23
2023-03-17T11:14:12.053Z,13.37
2023-03-17T11:18:17.916Z,13.45
2023-03-17T11:22:27.521Z,13.93
2023-03-17T11:26:44.552Z,14.07
2023-03-17T11:30:54.475Z,13.98
2023-03-17T11:35:24.523Z,13.89
2023-03-17T11:39:29.512Z,14.17
2023-03-17T11:43:37.303Z,14.44
2023-03-17T11:47:50.907Z,14.43
2023-03-17T11:51:59.784Z,14.27
2023-03-17T11:56:05.093Z,14.46
2023-03-17T12:00:18.128Z,14.61
2023-03-17T12:04:26.330Z,14.54
2023-03-17T12:08:33.410Z,14.43
2023-03-17T12:12:41.065Z,14.49
2023-03-17T12:16:47.517Z,14.63
2023-03-17T12:20:54.437Z,14.79
2023-03-17T12:25:07.005Z,14.87
2023-03-17T12:29:13.991Z,14.79
2023-03-17T12:33:26.381Z,14.51
2023-03-17T12:37:30.110Z,14.43
2023-03-17T12:41:56.890Z,14.45
2023-03-17T12:46:14.381Z,14.26
2023-03-17T12:50:31.932Z,14.37
2023-03-17T12:54:37.051Z,14.17
2023-03-17T12:58:41.932Z,14.25
2023-03-17T13:02:47.548Z,14.44
2023-03-17T13:07:00.805Z,14.15
2023-03-17T13:11:20.969Z,14.13
2023-03-17T13:15:31.006Z,14.21
2023-03-17T13:19:35.209Z,14.17
2023-03-17T13:23:44.395Z,14.11
2023-03-17T13:27:49.973Z,14.16
2023-03-17T13:31:56.257Z,14.11
2023-03-17T13:36:08.711Z,14.18
2023-03-17T13:40:18.275Z,14.14
2023-03-17T13:44:25.085Z,14.12
2023-03-17T13:48:34.230Z,14.11
2023-03-17T13:52:42.918Z,14.04
2023-03-17T13:56:51.301Z,14.10
2023-03-17T14:01:00.308Z,14.05
2023-03-17T14:05:06.304Z,14.04
2023-03-17T14:09:12.003Z,14.15
2023-03-17T14:13:21.330Z,14.27
2023-03-17T14:17:24.841Z,14.20
2023-03-17T14:21:32.471Z,14.03
2023-03-17T14:25:37.159Z,14.06
2023-03-17T14:29:41.256Z,14.04
2023-03-17T14:33:44.413Z,14.04
2023-03-17T14:37:47.223Z,14.08
2023-03-17T14:42:00.090Z,13.92
2023-03-17T14:46:05.899Z,13.97
2023-03-17T14:50:16.308Z,13.94
2023-03-17T14:54:21.232Z,13.88
2023-03-17T14:58:27.139Z,13.86
2023-03-17T15:02:34.459Z,13.81
2023-03-17T15:06:37.636Z,13.88
2023-03-17T15:10:43.317Z,13.77
2023-03-17T15:14:47.063Z,13.85
2023-03-17T15:18:58.713Z,13.64
2023-03-17T15:23:05.638Z,13.77
2023-03-17T15:27:15.679Z,13.89
2023-03-17T15:31:23.375Z,13.87
2023-03-17T15:35:28.190Z,13.93
2023-03-17T15:39:30.981Z,13.90
2023-03-17T15:43:34.761Z,13.84
2023-03-17T15:47:40.031Z,13.78
2023-03-17T15:51:44.220Z,13.63
2023-03-17T15:55:47.230Z,13.64
2023-03-17T15:59:50.543Z,13.56
2023-03-17T16:03:53.486Z,13.68
2023-03-17T16:07:58.042Z,13.67
2023-03-17T16:12:00.826Z,13.67
2023-03-17T16:16:06.629Z,13.59
2023-03-17T16:20:20.481Z,13.60
2023-03-17T16:24:25.922Z,13.56
2023-03-17T16:28:30.742Z,13.53
2023-03-17T16:32:33.790Z,13.59
2023-03-17T16:36:37.215Z,13.56
2023-03-17T16:40:41.867Z,13.46
2023-03-17T16:44:44.853Z,13.45
2023-03-17T16:48:48.355Z,13.33
2023-03-17T16:52:52.241Z,13.23
2023-03-17T16:56:56.455Z,13.12
2023-03-17T17:01:01.313Z,12.83
2023-03-17T17:05:07.377Z,12.83
2023-03-17T17:09:10.960Z,12.55
2023-03-17T17:13:15.414Z,12.32
2023-03-17T17:17:18.296Z,12.19
2023-03-17T17:21:21.237Z,12.05
2023-03-17T17:25:24.187Z,11.71
2023-03-17T17:29:30.128Z,11.24
2023-03-17T17:33:34.475Z,11.13
2023-03-17T17:37:37.287Z,10.96
2023-03-17T17:41:39.941Z,10.83
2023-03-17T17:45:44.210Z,10.73
2023-03-17T17:49:47.095Z,10.22
2023-03-17T17:53:49.921Z,10.47
2023-03-17T17:57:52.717Z,10.32
2023-03-17T18:01:57.194Z,10.03
2023-03-17T18:06:00.859Z,9.96
2023-03-17T18:10:03.502Z,9.80
2023-03-17T18:14:07.019Z,9.59
2023-03-17T18:18:11.512Z,9.78
2023-03-17T18:22:14.733Z,9.51
2023-03-17T18:26:20.271Z,9.18
2023-03-17T18:30:24.892Z,9.66
2023-03-17T18:34:31.868Z,9.26
2023-03-17T18:38:37.035Z,9.06
2023-03-17T18:42:39.996Z,9.28
2023-03-17T18:46:43.163Z,8.76
2023-03-17T18:50:48.577Z,9.14
2023-03-17T18:54:51.464Z,8.84
2023-03-17T18:58:54.688Z,8.70
2023-03-17T19:02:58.368Z,8.93
2023-03-17T19:07:02.804Z,8.72
2023-03-17T19:11:07.498Z,8.86
2023-03-17T19:15:12.688Z,8.85
2023-03-17T19:19:15.434Z,8.98
2023-03-17T19:23:20.208Z,8.16
2023-03-17T19:27:23.233Z,8.66
2023-03-17T19:31:26.272Z,8.27
2023-03-17T19:35:29.058Z,8.78
2023-03-17T19:39:34.176Z,8.64
2023-03-17T19:43:41.130Z,8.54
2023-03-17T19:47:44.185Z,8.01
2023-03-17T19:51:47.658Z,7.90
2023-03-17T19:55:52.559Z,7.99
2023-03-17T19:59:55.740Z,8.17
2023-03-17T20:03:58.574Z,8.15
2023-03-17T20:08:01.618Z,8.42
2023-03-17T20:12:06.656Z,8.06
2023-03-17T20:16:10.016Z,8.19
2023-03-17T20:20:14.549Z,8.38
2023-03-17T20:24:17.614Z,7.99
2023-03-17T20:28:22.544Z,7.97
2023-03-17T20:32:27.574Z,8.22
2023-03-17T20:36:30.474Z,8.01
2023-03-17T20:40:33.383Z,7.95
2023-03-17T20:44:38.882Z,7.84
2023-03-17T20:48:47.774Z,7.85
2023-03-17T20:52:50.649Z,8.11
2023-03-17T20:56:55.935Z,7.85
2023-03-17T21:01:01.875Z,8.01
2023-03-17T21:05:07.733Z,7.91
2023-03-17T21:09:11.199Z,7.94
2023-03-17T21:13:14.070Z,8.14
2023-03-17T21:17:18.404Z,8.07
2023-03-17T21:21:22.321Z,7.84
2023-03-17T21:25:25.610Z,7.73
2023-03-17T21:29:29.047Z,7.57
2023-03-17T21:33:35.179Z,7.60
2023-03-17T21:37:38.196Z,7.68
2023-03-17T21:41:41.767Z,7.67
2023-03-17T21:45:44.690Z,7.46
2023-03-17T21:49:49.351Z,7.74
2023-03-17T21:53:56.182Z,7.83
2023-03-17T21:58:00.265Z,7.47
2023-03-17T22:02:04.429Z,7.93
2023-03-17T22:06:09.532Z,7.93
2023-03-17T22:10:13.656Z,7.38
2023-03-17T22:14:20.166Z,7.44
2023-03-17T22:18:23.798Z,7.98
2023-03-17T22:22:29.031Z,7.62
2023-03-17T22:26:31.971Z,7.36
2023-03-17T22:30:38.880Z,7.41
2023-03-17T22:34:42.720Z,7.39
2023-03-17T22:38:47.925Z,7.39
2023-03-17T22:42:51.757Z,7.77
2023-03-17T22:46:54.748Z,7.69
2023-03-17T22:50:57.551Z,7.49
2023-03-17T22:55:02.476Z,7.67
2023-03-17T22:59:05.584Z,7.59
2023-03-17T23:03:08.938Z,7.39
2023-03-17T23:07:11.882Z,7.42
2023-03-17T23:11:19.709Z,7.36
2023-03-17T23:15:23.438Z,7.48
2023-03-17T23:19:26.075Z,7.54
2023-03-17T23:23:29.683Z,7.56
2023-03-17T23:27:34.511Z,7.12
2023-03-17T23:31:38.468Z,7.51
2023-03-17T23:35:41.260Z,7.59
2023-03-17T23:39:44.893Z,7.51
2023-03-17T23:43:49.131Z,7.33
2023-03-17T23:47:53.181Z,7.47
2023-03-17T23:51:56.275Z,7.62
2023-03-17T23:55:59.744Z,7.43
